Time;durP1;ratioP1;P1;durP2;ratioP2;P2;SDS_P1;SDS_P2;PMS_P1;PMS_P2;Temp;Humidity;BMP_temperature;BMP_pressure;BME280_temperature;BME280_humidity;BME280_pressure;Samples;Min_cycle;Max_cycle;Signal;HPM_P1;HPM_P2
2022/11/15 00:01:41;;;;;;;66.40;27.10;;;;;;;1.93;100.00;99835.27;104104;1339;22146;-32
2022/11/15 00:04:07;;;;;;;48.20;20.90;;;;;;;1.93;100.00;99836.38;103611;1339;613207;-33
2022/11/15 00:06:33;;;;;;;60.50;22.00;;;;;;;1.90;100.00;99832.44;104079;1339;22292;-33
2022/11/15 00:08:59;;;;;;;57.70;24.60;;;;;;;1.89;100.00;99818.88;103742;1337;22160;-36
2022/11/15 00:11:25;;;;;;;47.80;20.80;;;;;;;1.95;100.00;99803.36;103892;1339;22519;-37
2022/11/15 00:13:51;;;;;;;53.20;19.70;;;;;;;1.97;100.00;99796.79;103970;1339;22726;-33
2022/11/15 00:16:16;;;;;;;52.40;20.80;;;;;;;2.02;100.00;99800.48;104054;1325;22459;-37
2022/11/15 00:18:42;;;;;;;51.90;20.00;;;;;;;2.04;100.00;99801.87;104024;1339;22521;-33
2022/11/15 00:21:10;;;;;;;41.30;17.50;;;;;;;2.05;100.00;99803.23;104116;1337;22347;-37
2022/11/15 00:23:37;;;;;;;68.90;28.40;;;;;;;2.01;100.00;99802.80;103755;1331;22172;-34
2022/11/15 00:26:03;;;;;;;47.20;22.40;;;;;;;1.96;100.00;99801.30;103850;1339;22388;-34
2022/11/15 00:28:29;;;;;;;48.40;20.20;;;;;;;1.95;100.00;99792.61;104100;1339;22508;-33
2022/11/15 00:31:00;;;;;;;27.50;13.00;;;;;;;1.93;100.00;99789.63;103992;1340;22516;-33
2022/11/15 00:33:26;;;;;;;48.00;21.40;;;;;;;1.91;100.00;99784.27;104148;1337;22436;-36
2022/11/15 00:35:52;;;;;;;36.00;14.50;;;;;;;1.91;100.00;99783.55;104058;1331;22156;-37
2022/11/15 00:38:18;;;;;;;37.10;17.00;;;;;;;1.90;100.00;99779.21;104057;1325;22540;-37
2022/11/15 00:40:44;;;;;;;48.00;20.80;;;;;;;1.91;100.00;99774.20;104002;1339;22608;-37
2022/11/15 00:43:09;;;;;;;46.70;20.90;;;;;;;1.91;100.00;99760.81;103710;1339;22129;-37
2022/11/15 00:45:35;;;;;;;46.20;20.60;;;;;;;1.89;100.00;99759.69;104122;1331;22242;-37
2022/11/15 00:48:00;;;;;;;30.50;14.10;;;;;;;1.87;100.00;99762.02;104046;1338;22047;-33
2022/11/15 00:50:26;;;;;;;36.20;17.60;;;;;;;1.84;100.00;99754.65;104094;1339;22402;-37
2022/11/15 00:52:52;;;;;;;47.30;21.90;;;;;;;1.82;100.00;99751.96;104115;1324;23198;-37
2022/11/15 00:55:18;;;;;;;48.20;20.30;;;;;;;1.82;100.00;99745.83;104080;1339;22194;-37
2022/11/15 00:57:44;;;;;;;58.10;22.70;;;;;;;1.81;100.00;99747.02;104094;1339;22082;-34
2022/11/15 01:00:10;;;;;;;37.20;17.30;;;;;;;1.78;100.00;99748.10;103538;1341;22493;-36
2022/11/15 01:02:35;;;;;;;47.00;20.00;;;;;;;1.77;100.00;99742.23;103704;1339;22510;-36
2022/11/15 01:05:01;;;;;;;56.40;24.90;;;;;;;1.74;100.00;99746.90;104075;1324;22142;-37
2022/11/15 01:07:27;;;;;;;56.50;23.00;;;;;;;1.69;100.00;99746.41;104069;1339;22137;-37
2022/11/15 01:09:52;;;;;;;53.00;22.00;;;;;;;1.67;100.00;99741.10;103670;1339;22511;-37
2022/11/15 01:12:18;;;;;;;56.10;24.80;;;;;;;1.65;100.00;99734.27;104094;1323;22110;-37
2022/11/15 01:14:44;;;;;;;45.30;18.40;;;;;;;1.63;100.00;99730.65;104125;1333;22048;-33
2022/11/15 01:17:10;;;;;;;41.50;19.70;;;;;;;1.62;100.00;99724.91;104092;1337;22530;-37
2022/11/15 01:19:35;;;;;;;55.60;22.80;;;;;;;1.63;100.00;99721.81;104077;1333;22096;-33
2022/11/15 01:22:01;;;;;;;57.80;20.50;;;;;;;1.64;100.00;99722.98;104061;1337;22069;-33
2022/11/15 01:24:27;;;;;;;48.40;22.20;;;;;;;1.62;100.00;99722.25;104071;1339;22419;-37
2022/11/15 01:26:52;;;;;;;29.20;14.60;;;;;;;1.60;100.00;99720.55;104107;1339;22528;-37
2022/11/15 01:29:18;;;;;;;46.10;19.60;;;;;;;1.55;100.00;99715.87;103998;1339;22660;-37
2022/11/15 01:31:44;;;;;;;43.20;15.80;;;;;;;1.53;100.00;99709.00;104022;1339;22047;-36
2022/11/15 01:34:09;;;;;;;29.10;13.50;;;;;;;1.50;100.00;99705.17;104098;1339;22020;-37
2022/11/15 01:36:35;;;;;;;50.00;22.20;;;;;;;1.47;100.00;99701.59;104094;1338;22301;-36
2022/11/15 01:39:01;;;;;;;54.40;23.00;;;;;;;1.42;100.00;99697.20;104130;1331;22204;-38
2022/11/15 01:41:29;;;;;;;42.90;18.30;;;;;;;1.39;100.00;99694.58;104128;1331;22424;-37
2022/11/15 01:43:56;;;;;;;47.20;21.50;;;;;;;1.39;100.00;99685.84;104129;1339;22146;-33
2022/11/15 01:46:29;;;;;;;62.20;24.90;;;;;;;1.38;100.00;99689.89;104112;1339;22168;-37
2022/11/15 01:48:56;;;;;;;34.20;11.90;;;;;;;1.39;100.00;99701.16;104049;1331;22063;-37
2022/11/15 01:51:22;;;;;;;53.40;22.30;;;;;;;1.38;100.00;99699.64;104015;1339;22234;-33
2022/11/15 01:53:50;;;;;;;56.80;25.80;;;;;;;1.39;100.00;99700.10;104007;1339;22125;-37
2022/11/15 01:56:20;;;;;;;50.20;23.30;;;;;;;1.39;100.00;99698.09;104110;1339;22336;-37
2022/11/15 01:58:46;;;;;;;52.00;22.10;;;;;;;1.40;100.00;99705.30;104128;1339;22530;-33
2022/11/15 02:01:12;;;;;;;54.80;22.30;;;;;;;1.39;100.00;99700.30;104088;1336;22515;-37
2022/11/15 02:03:44;;;;;;;54.00;21.30;;;;;;;1.36;100.00;99692.56;104062;1339;22463;-36
2022/11/15 02:06:09;;;;;;;46.00;17.40;;;;;;;1.36;100.00;99684.27;104051;1339;22344;-37
2022/11/15 02:08:35;;;;;;;42.00;20.50;;;;;;;1.41;100.00;99681.91;104089;1339;22189;-33
2022/11/15 02:11:01;;;;;;;47.80;22.40;;;;;;;1.44;100.00;99683.99;104030;1339;22521;-37
2022/11/15 02:13:27;;;;;;;35.30;16.80;;;;;;;1.47;100.00;99684.42;103946;1324;22213;-33
2022/11/15 02:15:55;;;;;;;50.30;22.80;;;;;;;1.49;100.00;99687.08;104055;1331;22522;-34
2022/11/15 02:18:27;;;;;;;26.40;15.50;;;;;;;1.53;100.00;99682.14;104086;1324;22200;-37
2022/11/15 02:20:57;;;;;;;32.20;15.50;;;;;;;1.55;100.00;99679.84;104040;1339;22524;-37
2022/11/15 02:23:26;;;;;;;65.30;23.30;;;;;;;1.57;100.00;99680.89;103876;1337;22274;-37
2022/11/15 02:25:54;;;;;;;58.80;23.20;;;;;;;1.58;100.00;99679.10;104092;1339;22192;-36
2022/11/15 02:28:35;;;;;;;36.20;18.90;;;;;;;1.60;100.00;99676.39;104123;1339;22274;-37
2022/11/15 02:31:00;;;;;;;46.10;20.40;;;;;;;1.62;100.00;99672.15;104105;1339;22916;-33
2022/11/15 02:33:31;;;;;;;35.60;14.50;;;;;;;1.63;100.00;99669.11;104112;1339;22065;-34
2022/11/15 02:35:59;;;;;;;43.70;21.10;;;;;;;1.64;100.00;99674.63;104054;1326;22504;-37
2022/11/15 02:38:31;;;;;;;57.60;22.60;;;;;;;1.64;100.00;99671.83;104073;1339;22531;-34
2022/11/15 02:41:01;;;;;;;25.50;10.60;;;;;;;1.66;100.00;99667.96;104031;1339;22446;-37
2022/11/15 02:46:10;;;;;;;43.90;18.80;;;;;;;1.68;100.00;99663.21;104111;1331;22186;-33
2022/11/15 02:48:36;;;;;;;39.20;18.10;;;;;;;1.67;100.00;99664.15;103839;1339;22863;-34
2022/11/15 02:51:01;;;;;;;41.60;17.90;;;;;;;1.68;100.00;99660.41;104087;1333;22135;-37
2022/11/15 02:53:27;;;;;;;53.40;21.60;;;;;;;1.69;100.00;99660.45;104119;1339;22183;-37
2022/11/15 02:55:53;;;;;;;37.50;16.30;;;;;;;1.70;100.00;99656.52;104044;1339;22166;-36
2022/11/15 02:58:25;;;;;;;36.10;17.30;;;;;;;1.69;100.00;99653.57;104049;1339;22483;-37
2022/11/15 03:00:55;;;;;;;12.10;9.90;;;;;;;1.67;100.00;99654.42;104048;1339;22033;-37
2022/11/15 03:03:30;;;;;;;34.50;16.30;;;;;;;1.63;100.00;99652.34;104077;1331;22169;-37
2022/11/15 03:05:57;;;;;;;93.60;33.50;;;;;;;1.59;100.00;99647.37;104100;1331;22036;-37
2022/11/15 03:08:46;;;;;;;35.80;17.50;;;;;;;1.55;100.00;99643.34;104085;1339;22297;-37
2022/11/15 03:11:14;;;;;;;41.70;17.40;;;;;;;1.53;100.00;99640.52;104033;1339;22043;-33
2022/11/15 03:13:47;;;;;;;45.10;15.40;;;;;;;1.51;100.00;99644.23;103903;1339;22803;-37
2022/11/15 03:16:15;;;;;;;24.50;10.40;;;;;;;1.52;100.00;99648.72;104118;1331;22170;-37
2022/11/15 03:18:42;;;;;;;36.40;17.50;;;;;;;1.55;100.00;99652.81;104122;1339;22052;-34
2022/11/15 03:21:09;;;;;;;31.20;14.40;;;;;;;1.54;100.00;99647.77;104037;1339;22202;-36
2022/11/15 03:23:37;;;;;;;29.50;13.70;;;;;;;1.57;100.00;99645.74;104100;1339;22348;-37
2022/11/15 03:26:04;;;;;;;25.50;12.10;;;;;;;1.60;100.00;99635.10;104115;1339;22534;-33
2022/11/15 03:28:35;;;;;;;38.30;15.60;;;;;;;1.65;100.00;99627.30;104058;1331;22369;-32
2022/11/15 03:31:01;;;;;;;29.90;14.30;;;;;;;1.65;100.00;99617.20;104081;1339;22545;-33
2022/11/15 03:33:27;;;;;;;40.20;16.60;;;;;;;1.65;100.00;99614.39;104105;1339;22336;-37
2022/11/15 03:35:52;;;;;;;34.60;14.50;;;;;;;1.67;100.00;99614.60;104046;1339;22505;-37
2022/11/15 03:38:22;;;;;;;33.80;16.40;;;;;;;1.66;100.00;99613.04;104068;1339;22274;-34
2022/11/15 03:40:51;;;;;;;34.90;13.50;;;;;;;1.62;100.00;99610.21;104071;1339;22511;-37
2022/11/15 03:43:19;;;;;;;23.20;10.40;;;;;;;1.57;100.00;99610.45;104019;1329;22136;-33
2022/11/15 03:45:48;;;;;;;25.10;11.20;;;;;;;1.55;100.00;99609.98;104131;1338;22004;-36
2022/11/15 03:48:16;;;;;;;44.80;17.60;;;;;;;1.51;100.00;99608.38;104102;1339;22143;-37
2022/11/15 03:50:42;;;;;;;34.40;14.60;;;;;;;1.50;100.00;99604.26;103978;1339;22291;-37
2022/11/15 03:53:08;;;;;;;26.90;13.70;;;;;;;1.49;100.00;99608.58;104113;1338;22146;-37
2022/11/15 03:55:33;;;;;;;45.00;19.50;;;;;;;1.47;100.00;99610.34;104069;1339;22299;-34
2022/11/15 03:58:00;;;;;;;32.70;16.20;;;;;;;1.45;100.00;99608.39;104029;1339;22261;-37
2022/11/15 04:00:26;;;;;;;23.60;11.90;;;;;;;1.45;100.00;99605.77;104062;1331;22540;-34
2022/11/15 04:02:52;;;;;;;32.10;16.10;;;;;;;1.45;100.00;99611.17;104097;1333;22130;-37
2022/11/15 04:05:18;;;;;;;20.00;11.40;;;;;;;1.46;100.00;99612.21;103987;1339;22025;-37
2022/11/15 04:07:43;;;;;;;42.50;18.10;;;;;;;1.45;100.00;99614.58;103909;1338;22520;-37
2022/11/15 04:10:10;;;;;;;40.00;19.90;;;;;;;1.44;100.00;99621.02;104098;1337;22575;-37
2022/11/15 04:12:39;;;;;;;20.90;10.50;;;;;;;1.42;100.00;99615.16;103919;1336;22053;-37
2022/11/15 04:15:07;;;;;;;39.60;17.20;;;;;;;1.43;100.00;99621.95;104041;1338;22069;-33
2022/11/15 04:17:36;;;;;;;51.60;21.50;;;;;;;1.44;100.00;99620.25;104031;1339;23323;-33
2022/11/15 04:25:02;;;;;;;47.80;20.90;;;;;;;1.51;100.00;99620.25;104104;1339;22045;-33
2022/11/15 04:27:28;;;;;;;43.30;18.20;;;;;;;1.52;100.00;99621.14;104053;1339;22260;-33
2022/11/15 04:29:53;;;;;;;38.70;17.70;;;;;;;1.54;100.00;99617.33;104109;1332;22032;-34
2022/11/15 04:32:19;;;;;;;43.20;17.50;;;;;;;1.56;100.00;99617.29;104049;1339;22390;-35
2022/11/15 04:34:45;;;;;;;49.20;22.10;;;;;;;1.58;100.00;99609.02;104067;1339;22194;-37
2022/11/15 04:37:12;;;;;;;54.00;20.20;;;;;;;1.60;100.00;99603.67;104077;1338;22110;-37
2022/11/15 04:39:39;;;;;;;37.20;16.40;;;;;;;1.64;100.00;99606.73;104119;1330;22210;-37
2022/11/15 04:42:05;;;;;;;42.70;19.30;;;;;;;1.65;100.00;99602.38;104102;1331;22149;-36
2022/11/15 04:44:31;;;;;;;28.60;12.60;;;;;;;1.66;100.00;99603.73;103837;1339;22522;-37
2022/11/15 04:46:56;;;;;;;31.00;14.40;;;;;;;1.64;100.00;99603.36;104049;1339;22275;-37
2022/11/15 04:49:22;;;;;;;43.80;19.90;;;;;;;1.63;100.00;99598.34;104088;1339;22249;-37
2022/11/15 04:51:47;;;;;;;55.40;22.40;;;;;;;1.61;100.00;99594.95;104042;1325;22525;-33
2022/11/15 04:54:13;;;;;;;49.80;22.90;;;;;;;1.60;100.00;99595.73;104056;1331;22730;-37
2022/11/15 04:56:39;;;;;;;41.30;19.60;;;;;;;1.58;100.00;99592.60;104013;1324;22511;-37
2022/11/15 04:59:05;;;;;;;41.30;20.20;;;;;;;1.57;100.00;99584.02;103955;1327;22527;-34
2022/11/15 05:01:31;;;;;;;51.50;21.90;;;;;;;1.58;100.00;99582.91;104095;1331;22419;-37
2022/11/15 05:06:25;;;;;;;38.90;18.30;;;;;;;1.66;100.00;99582.04;104075;1339;22128;-37
2022/11/15 05:08:51;;;;;;;59.80;21.00;;;;;;;1.69;100.00;99581.02;104017;1339;22554;-34
2022/11/15 05:11:17;;;;;;;46.10;19.90;;;;;;;1.74;100.00;99577.80;104034;1332;24271;-33
2022/11/15 05:13:43;;;;;;;39.10;17.90;;;;;;;1.79;100.00;99580.65;103787;1339;22856;-37
2022/11/15 05:16:09;;;;;;;48.30;20.80;;;;;;;1.81;100.00;99580.30;104109;1339;22572;-33
2022/11/15 05:18:34;;;;;;;42.10;19.70;;;;;;;1.83;100.00;99580.52;104109;1325;22017;-38
2022/11/15 05:21:04;;;;;;;26.50;14.30;;;;;;;1.84;100.00;99582.48;104078;1331;22530;-34
2022/11/15 05:23:30;;;;;;;52.50;22.00;;;;;;;1.85;100.00;99579.96;104000;1339;22507;-33
2022/11/15 05:25:59;;;;;;;42.70;15.90;;;;;;;1.84;100.00;99572.11;104105;1331;22175;-33
2022/11/15 05:28:25;;;;;;;32.10;16.90;;;;;;;1.82;100.00;99563.58;104062;1339;22038;-33
2022/11/15 05:30:51;;;;;;;38.90;17.80;;;;;;;1.80;100.00;99558.73;104094;1331;22024;-36
2022/11/15 05:33:17;;;;;;;42.00;21.20;;;;;;;1.76;100.00;99548.63;104094;1339;22290;-37
2022/11/15 05:35:46;;;;;;;42.00;22.60;;;;;;;1.76;100.00;99549.88;104043;1339;22561;-34
2022/11/15 05:38:12;;;;;;;50.90;23.90;;;;;;;1.71;100.00;99551.93;104126;1331;22028;-38
2022/11/15 05:40:37;;;;;;;56.10;27.80;;;;;;;1.62;100.00;99549.35;103478;1327;22149;-33
2022/11/15 05:43:03;;;;;;;71.60;28.90;;;;;;;1.54;100.00;99547.91;104069;1331;22565;-33
2022/11/15 05:45:29;;;;;;;63.40;27.50;;;;;;;1.44;100.00;99545.25;103971;1331;22515;-37
2022/11/15 05:47:55;;;;;;;165.80;44.00;;;;;;;1.37;100.00;99541.45;103948;1334;22582;-33
2022/11/15 05:50:21;;;;;;;82.80;30.40;;;;;;;1.36;100.00;99542.42;104088;1329;22091;-36
2022/11/15 05:52:46;;;;;;;59.80;26.20;;;;;;;1.36;100.00;99540.52;104106;1331;22518;-37
2022/11/15 05:55:12;;;;;;;44.00;20.00;;;;;;;1.41;100.00;99541.88;103918;1339;22681;-34
2022/11/15 05:57:38;;;;;;;33.90;15.50;;;;;;;1.48;100.00;99550.45;104118;1339;22538;-33
2022/11/15 06:00:04;;;;;;;53.70;22.50;;;;;;;1.44;100.00;99566.29;104060;1331;22215;-34
2022/11/15 06:02:30;;;;;;;42.70;17.60;;;;;;;1.33;100.00;99575.21;104076;1339;22186;-37
2022/11/15 06:04:55;;;;;;;34.70;16.40;;;;;;;1.27;100.00;99570.76;103944;1339;22527;-36
2022/11/15 06:07:21;;;;;;;28.20;14.30;;;;;;;1.31;100.00;99570.94;103964;1339;22589;-36
2022/11/15 06:09:46;;;;;;;49.60;25.50;;;;;;;1.40;100.00;99572.62;104079;1331;22521;-37
2022/11/15 06:12:13;;;;;;;56.20;24.50;;;;;;;1.43;100.00;99573.96;103488;1339;22176;-33
2022/11/15 06:14:38;;;;;;;67.60;31.10;;;;;;;1.41;100.00;99571.45;103895;1339;22513;-33
2022/11/15 06:17:04;;;;;;;111.30;42.00;;;;;;;1.35;100.00;99564.92;103651;1337;22228;-35
2022/11/15 06:19:32;;;;;;;64.60;29.30;;;;;;;1.26;100.00;99559.17;103819;1339;22500;-33
2022/11/15 06:21:59;;;;;;;59.40;27.40;;;;;;;1.19;100.00;99553.46;103953;1334;22131;-34
2022/11/15 06:24:25;;;;;;;43.20;18.30;;;;;;;1.20;100.00;99553.94;104019;1339;22553;-33
2022/11/15 06:26:51;;;;;;;70.60;32.60;;;;;;;1.24;100.00;99559.58;103949;1324;22509;-34
2022/11/15 06:29:16;;;;;;;72.30;30.20;;;;;;;1.28;100.00;99568.76;103873;1339;22081;-35
2022/11/15 06:31:42;;;;;;;61.90;28.40;;;;;;;1.30;100.00;99574.95;104010;1339;22358;-33
2022/11/15 06:34:07;;;;;;;61.10;26.40;;;;;;;1.31;100.00;99582.75;104002;1331;22776;-33
2022/11/15 06:36:35;;;;;;;58.00;24.30;;;;;;;1.30;100.00;99583.03;104015;1334;22475;-33
2022/11/15 06:39:02;;;;;;;74.30;26.70;;;;;;;1.26;100.00;99586.41;104027;1339;22261;-33
2022/11/15 06:41:28;;;;;;;56.80;24.80;;;;;;;1.23;100.00;99585.44;103973;1339;22026;-36
2022/11/15 06:43:53;;;;;;;41.80;20.00;;;;;;;1.29;100.00;99582.23;103852;1334;22559;-32
2022/11/15 06:46:19;;;;;;;24.90;10.70;;;;;;;1.38;100.00;99588.11;103809;1334;22514;-33
2022/11/15 06:48:45;;;;;;;43.00;19.50;;;;;;;1.44;100.00;99591.86;103610;1339;22152;-32
2022/11/15 06:51:10;;;;;;;54.00;27.30;;;;;;;1.49;100.00;99595.84;103837;1339;22472;-36
2022/11/15 06:53:36;;;;;;;75.90;30.60;;;;;;;1.54;100.00;99596.66;103307;1339;22491;-35
2022/11/15 06:56:03;;;;;;;57.80;24.10;;;;;;;1.55;100.00;99590.02;103774;1339;22322;-33
2022/11/15 06:58:29;;;;;;;59.30;31.20;;;;;;;1.60;100.00;99591.14;103891;1331;22522;-37
2022/11/15 07:00:59;;;;;;;104.90;51.10;;;;;;;1.69;100.00;99584.59;104034;1331;22986;-33
2022/11/15 07:03:25;;;;;;;81.80;41.80;;;;;;;1.78;100.00;99576.16;103905;1339;22507;-33
2022/11/15 07:05:54;;;;;;;69.20;32.40;;;;;;;1.88;100.00;99573.37;103914;1339;22156;-36
2022/11/15 07:08:21;;;;;;;95.00;47.50;;;;;;;1.94;100.00;99562.09;103864;1334;22538;-36
2022/11/15 07:10:46;;;;;;;66.90;36.80;;;;;;;2.03;100.00;99564.80;104020;1336;22109;-36
2022/11/15 07:13:12;;;;;;;63.20;33.60;;;;;;;2.14;100.00;99560.55;104001;1339;22212;-33
2022/11/15 07:15:37;;;;;;;51.40;27.00;;;;;;;2.27;100.00;99564.91;103535;1338;22533;-33
2022/11/15 07:18:04;;;;;;;38.60;18.70;;;;;;;2.40;100.00;99570.27;103845;1339;22546;-33
2022/11/15 07:20:30;;;;;;;51.70;23.30;;;;;;;2.52;100.00;99576.03;104062;1339;22511;-33
2022/11/15 07:23:00;;;;;;;39.90;19.90;;;;;;;2.68;100.00;99577.69;103697;1331;22441;-36
2022/11/15 07:25:26;;;;;;;68.40;33.00;;;;;;;2.98;100.00;99583.95;104003;1331;22514;-36
2022/11/15 07:27:55;;;;;;;60.60;33.70;;;;;;;3.32;100.00;99588.59;103866;1339;24461;-33
2022/11/15 07:30:20;;;;;;;79.20;41.80;;;;;;;3.62;100.00;99595.62;104038;1336;22407;-36
2022/11/15 07:32:46;;;;;;;96.10;43.60;;;;;;;3.86;100.00;99595.07;104077;1332;22075;-33
2022/11/15 07:35:12;;;;;;;80.20;40.40;;;;;;;4.10;100.00;99590.95;104084;1331;22145;-36
2022/11/15 07:37:37;;;;;;;43.50;25.10;;;;;;;4.28;100.00;99568.15;104094;1338;22190;-36
2022/11/15 07:40:03;;;;;;;91.40;33.50;;;;;;;4.53;100.00;99550.13;104065;1339;22183;-34
2022/11/15 07:45:00;;;;;;;65.70;21.20;;;;;;;4.86;100.00;99482.64;104063;1331;22727;-34
2022/11/15 07:47:28;;;;;;;69.30;29.50;;;;;;;5.05;100.00;99458.31;103935;1334;22549;-33
2022/11/15 07:49:54;;;;;;;45.60;24.00;;;;;;;5.20;100.00;99438.79;102749;1321;22530;-36
2022/11/15 07:52:19;;;;;;;52.90;26.20;;;;;;;5.32;100.00;99425.23;103926;1339;22201;-32
2022/11/15 07:54:45;;;;;;;25.50;15.10;;;;;;;5.43;100.00;99414.19;104056;1339;22512;-36
2022/11/15 07:57:11;;;;;;;38.50;22.10;;;;;;;5.47;100.00;99399.93;104034;1317;22069;-36
2022/11/15 07:59:37;;;;;;;33.00;21.30;;;;;;;5.49;100.00;99401.84;103994;1331;22043;-34
2022/11/15 08:02:02;;;;;;;41.70;18.20;;;;;;;5.45;100.00;99419.48;103643;1337;22504;-36
2022/11/15 08:04:28;;;;;;;34.10;18.00;;;;;;;5.43;100.00;99423.77;103765;1339;385139;-33
2022/11/15 08:06:53;;;;;;;25.40;14.90;;;;;;;5.35;100.00;99422.13;104040;1331;22248;-33
2022/11/15 08:09:19;;;;;;;25.30;15.30;;;;;;;5.40;100.00;99424.63;104051;1339;22511;-33
2022/11/15 08:11:45;;;;;;;32.00;17.70;;;;;;;5.65;100.00;99460.71;104026;1339;22333;-36
2022/11/15 08:14:10;;;;;;;37.50;19.60;;;;;;;5.93;100.00;99484.15;103924;1331;22155;-32
2022/11/15 08:16:36;;;;;;;30.70;17.50;;;;;;;6.24;100.00;99488.88;104037;1323;22542;-33
2022/11/15 08:19:02;;;;;;;31.40;16.00;;;;;;;6.46;100.00;99487.66;104018;1317;22219;-36
2022/11/15 08:21:28;;;;;;;28.30;17.20;;;;;;;6.80;100.00;99489.66;103854;1339;22601;-34
2022/11/15 08:23:53;;;;;;;37.00;20.80;;;;;;;7.12;100.00;99493.02;103826;1339;22276;-34
2022/11/15 08:26:19;;;;;;;33.40;14.00;;;;;;;7.51;100.00;99492.85;103960;1330;22151;-34
2022/11/15 08:28:45;;;;;;;26.30;16.00;;;;;;;7.80;100.00;99470.09;104020;1332;22519;-34
2022/11/15 08:31:14;;;;;;;33.80;15.00;;;;;;;8.02;100.00;99447.46;103635;1337;22023;-38
2022/11/15 08:33:40;;;;;;;23.70;14.20;;;;;;;8.19;100.00;99415.98;104074;1339;22519;-37
2022/11/15 08:36:06;;;;;;;23.00;13.70;;;;;;;8.38;100.00;99402.05;104069;1331;22220;-37
2022/11/15 08:38:32;;;;;;;22.00;14.20;;;;;;;8.59;100.00;99383.41;103848;1324;22081;-38
2022/11/15 08:41:01;;;;;;;30.90;14.20;;;;;;;8.71;100.00;99363.27;104058;1339;22077;-37
2022/11/15 08:43:27;;;;;;;41.20;15.60;;;;;;;9.00;100.00;99348.85;103941;1339;22097;-37
2022/11/15 08:45:56;;;;;;;22.20;13.40;;;;;;;9.22;100.00;99329.55;103929;1339;22601;-37
2022/11/15 08:48:22;;;;;;;19.30;13.20;;;;;;;9.46;100.00;99334.42;104027;1331;22590;-37
2022/11/15 08:50:48;;;;;;;22.00;12.50;;;;;;;9.73;100.00;99327.42;104040;1339;22185;-38
2022/11/15 08:53:13;;;;;;;16.70;10.30;;;;;;;10.07;100.00;99326.04;104030;1339;22142;-38
2022/11/15 08:55:39;;;;;;;21.20;14.50;;;;;;;10.27;100.00;99329.80;103984;1339;22419;-35
2022/11/15 08:58:05;;;;;;;20.80;13.10;;;;;;;10.40;100.00;99328.08;103842;1339;22521;-37
2022/11/15 09:00:31;;;;;;;20.90;12.40;;;;;;;10.63;100.00;99329.14;104007;1338;22535;-35
2022/11/15 09:02:56;;;;;;;20.00;12.00;;;;;;;10.90;100.00;99335.16;103957;1331;22443;-36
2022/11/15 09:05:22;;;;;;;18.80;12.00;;;;;;;11.28;100.00;99325.28;103984;1339;22605;-38
2022/11/15 09:07:47;;;;;;;17.70;12.00;;;;;;;11.20;100.00;99315.00;103903;1339;22191;-38
2022/11/15 09:10:13;;;;;;;20.40;12.70;;;;;;;11.12;100.00;99310.31;103436;1339;22571;-38
2022/11/15 09:12:38;;;;;;;17.90;12.00;;;;;;;11.11;100.00;99303.60;103987;1334;22161;-36
2022/11/15 09:15:05;;;;;;;15.60;11.60;;;;;;;11.18;100.00;99302.64;104005;1339;22535;-36
2022/11/15 09:17:31;;;;;;;32.90;13.60;;;;;;;11.32;100.00;99306.64;104005;1339;22538;-36
2022/11/15 09:19:57;;;;;;;22.80;13.70;;;;;;;11.64;100.00;99304.30;103969;1334;22219;-36
2022/11/15 09:22:22;;;;;;;16.80;11.10;;;;;;;11.60;100.00;99299.45;104003;1334;23191;-36
2022/11/15 09:24:48;;;;;;;18.90;12.10;;;;;;;11.70;100.00;99298.34;104070;1323;22164;-38
2022/11/15 09:27:13;;;;;;;16.40;9.60;;;;;;;11.75;100.00;99292.45;103894;1339;22512;-36
2022/11/15 09:29:39;;;;;;;17.20;11.40;;;;;;;12.16;100.00;99288.69;103857;1339;22214;-35
2022/11/15 09:32:05;;;;;;;19.70;10.60;;;;;;;12.14;100.00;99285.26;104049;1339;22517;-35
2022/11/15 09:34:31;;;;;;;18.80;10.60;;;;;;;12.32;100.00;99285.71;103919;1331;22516;-35
2022/11/15 09:36:56;;;;;;;13.80;10.60;;;;;;;12.47;99.84;99281.71;104052;1339;22541;-35
2022/11/15 09:39:22;;;;;;;21.20;12.90;;;;;;;12.85;100.00;99274.27;104010;1339;22598;-35
2022/11/15 09:41:54;;;;;;;18.10;12.50;;;;;;;12.95;98.92;99270.20;104033;1331;22515;-35
2022/11/15 09:44:31;;;;;;;13.70;9.90;;;;;;;13.24;94.88;99272.55;104064;1339;22510;-35
2022/11/15 09:47:09;;;;;;;16.00;12.00;;;;;;;13.04;97.21;99272.15;103740;1339;24393;-37
2022/11/15 09:49:35;;;;;;;14.60;11.00;;;;;;;13.30;94.68;99266.42;104070;1339;22158;-37
2022/11/15 09:52:01;;;;;;;12.90;9.60;;;;;;;13.36;93.40;99266.01;104044;1331;22177;-37
2022/11/15 09:54:30;;;;;;;13.00;9.70;;;;;;;13.56;91.07;99266.03;104059;1339;22405;-35
2022/11/15 09:57:05;;;;;;;20.90;10.90;;;;;;;13.76;89.32;99263.80;104086;1337;22517;-37
2022/11/15 09:59:39;;;;;;;14.00;9.40;;;;;;;13.54;88.57;99262.52;103972;1331;22541;-35
2022/11/15 10:02:08;;;;;;;11.20;9.10;;;;;;;13.86;89.05;99257.08;103874;1339;22062;-38
2022/11/15 10:04:34;;;;;;;13.80;9.60;;;;;;;13.92;85.85;99250.79;104025;1339;22365;-37
2022/11/15 10:07:04;;;;;;;10.40;7.00;;;;;;;14.13;82.53;99245.31;103994;1323;22486;-35
2022/11/15 10:09:36;;;;;;;9.80;7.30;;;;;;;14.05;81.12;99236.95;103835;1339;22056;-35
2022/11/15 10:12:02;;;;;;;17.30;9.60;;;;;;;14.16;82.33;99235.48;103949;1339;22268;-35
2022/11/15 10:14:28;;;;;;;13.10;9.50;;;;;;;14.32;78.59;99233.02;104043;1339;22514;-37
2022/11/15 10:17:03;;;;;;;9.10;7.30;;;;;;;14.16;78.41;99236.46;104001;1334;22535;-35
2022/11/15 10:19:33;;;;;;;11.30;7.40;;;;;;;14.29;76.23;99233.17;104054;1339;22522;-38
2022/11/15 10:22:04;;;;;;;12.50;10.50;;;;;;;14.37;78.49;99227.14;104056;1324;22232;-35
2022/11/15 10:24:34;;;;;;;14.40;5.80;;;;;;;14.80;77.03;99224.86;103890;1331;22042;-38
2022/11/15 10:27:00;;;;;;;11.00;9.00;;;;;;;15.10;70.16;99221.08;103917;1333;22258;-35
2022/11/15 10:29:26;;;;;;;12.30;8.40;;;;;;;14.66;70.93;99223.02;103802;1337;22529;-35
2022/11/15 10:31:51;;;;;;;9.80;7.40;;;;;;;14.51;71.77;99222.71;103945;1339;22503;-35
2022/11/15 10:34:19;;;;;;;9.00;6.30;;;;;;;14.45;71.17;99218.78;104016;1339;22265;-35
2022/11/15 10:36:46;;;;;;;17.60;10.20;;;;;;;14.96;72.00;99213.50;103442;1324;22512;-39
2022/11/15 10:39:13;;;;;;;12.90;8.60;;;;;;;15.11;71.98;99211.58;103489;1331;22142;-35
2022/11/15 10:41:40;;;;;;;10.20;6.90;;;;;;;15.47;69.80;99210.02;104012;1339;22490;-36
2022/11/15 10:44:11;;;;;;;9.70;7.20;;;;;;;15.47;65.13;99213.48;104060;1337;22526;-37
2022/11/15 10:46:39;;;;;;;8.80;7.50;;;;;;;15.12;66.21;99210.48;103979;1339;23219;-38
2022/11/15 10:49:17;;;;;;;14.10;8.80;;;;;;;15.46;65.26;99210.46;104079;1331;22546;-38
2022/11/15 10:51:45;;;;;;;11.80;8.80;;;;;;;15.27;66.32;99207.41;104079;1339;22187;-38
2022/11/15 10:54:11;;;;;;;9.60;5.60;;;;;;;15.53;66.30;99204.62;103574;1339;22769;-38
2022/11/15 10:56:37;;;;;;;12.00;7.70;;;;;;;15.50;65.11;99202.23;103535;1339;23773;-38
2022/11/15 10:59:03;;;;;;;13.70;8.30;;;;;;;15.76;64.53;99202.15;103955;1325;22028;-38
2022/11/15 11:01:29;;;;;;;11.40;7.70;;;;;;;15.78;64.40;99199.87;103987;1339;22715;-36
2022/11/15 11:03:59;;;;;;;10.90;7.80;;;;;;;15.87;62.40;99201.11;104021;1331;22179;-38
2022/11/15 11:06:25;;;;;;;9.10;7.00;;;;;;;15.66;64.86;99201.13;104070;1331;22562;-36
2022/11/15 11:08:55;;;;;;;15.00;9.00;;;;;;;16.00;63.97;99197.14;104066;1339;22196;-36
2022/11/15 11:11:21;;;;;;;9.40;7.20;;;;;;;15.95;63.05;99195.25;104000;1333;22165;-36
2022/11/15 11:13:46;;;;;;;10.80;7.00;;;;;;;16.25;65.37;99194.23;104062;1333;22185;-36
2022/11/15 11:16:13;;;;;;;6.40;4.20;;;;;;;16.64;63.74;99190.32;103954;1339;22550;-38
2022/11/15 11:19:02;;;;;;;10.90;7.50;;;;;;;16.95;61.06;99183.83;103963;1339;22026;-38
2022/11/15 11:21:34;;;;;;;11.40;8.30;;;;;;;16.85;59.55;99182.21;103978;1339;22167;-36